createdAt,value
2017-08-01T00:00:28.755Z,63.7
2017-08-01T00:01:30.940Z,63.0
2017-08-01T00:02:32.337Z,62.7
2017-08-01T00:03:33.985Z,62.7
2017-08-01T00:04:35.883Z,62.4
2017-08-01T00:06:18.234Z,64.7
2017-08-01T00:07:19.620Z,65.5
2017-08-01T00:08:21.000Z,65.1
2017-08-01T00:09:22.384Z,65.5
2017-08-01T00:10:24.021Z,65.7
2017-08-01T00:11:25.402Z,66.1
2017-08-01T00:12:26.785Z,66.3
2017-08-01T00:14:09.166Z,64.5
2017-08-01T00:15:10.638Z,64.2
2017-08-01T00:16:12.041Z,64.5
2017-08-01T00:17:13.414Z,64.9
2017-08-01T00:18:14.799Z,64.5
2017-08-01T00:19:16.186Z,64.7
2017-08-01T00:20:17.564Z,64.8
2017-08-01T00:21:18.946Z,65.4
2017-08-01T00:22:20.326Z,66.3
2017-08-01T00:23:21.730Z,67.0
2017-08-01T00:24:23.113Z,67.4
2017-08-01T00:25:24.488Z,67.1
2017-08-01T00:26:25.886Z,67.4
2017-08-01T00:27:27.280Z,67.4
2017-08-01T00:28:28.731Z,67.7
2017-08-01T00:29:30.112Z,67.6
2017-08-01T00:30:31.487Z,67.3
2017-08-01T00:32:13.866Z,67.5
2017-08-01T00:33:15.243Z,68.0
2017-08-01T00:34:16.623Z,69.6
2017-08-01T00:35:18.000Z,70.1
2017-08-01T00:36:19.383Z,65.9
2017-08-01T00:37:20.761Z,66.9
2017-08-01T00:38:22.141Z,67.5
2017-08-01T00:40:04.507Z,68.0
2017-08-01T00:41:05.900Z,68.0
2017-08-01T00:42:07.281Z,67.7
2017-08-01T00:43:08.664Z,67.9
2017-08-01T00:44:10.045Z,69.9
2017-08-01T00:45:11.430Z,69.7
2017-08-01T00:46:12.810Z,71.3
2017-08-01T00:47:14.192Z,70.4
2017-08-01T00:48:15.580Z,71.3
2017-08-01T00:49:16.960Z,71.1
2017-08-01T00:50:18.339Z,72.7
2017-08-01T00:51:19.831Z,71.0
2017-08-01T00:52:21.219Z,70.5
2017-08-01T00:53:22.599Z,70.9
2017-08-01T00:54:24.010Z,71.5
2017-08-01T00:55:25.387Z,70.0
2017-08-01T00:56:26.768Z,68.9
2017-08-01T00:57:28.151Z,70.5
2017-08-01T00:58:29.526Z,69.8
2017-08-01T00:59:30.915Z,71.1
2017-08-01T01:01:13.286Z,70.2
2017-08-01T01:02:14.664Z,69.6
2017-08-01T01:03:16.049Z,70.7
2017-08-01T01:04:17.429Z,71.5
2017-08-01T01:05:18.835Z,71.7
2017-08-01T01:06:20.220Z,71.8
2017-08-01T01:07:21.595Z,71.6
2017-08-01T01:08:22.985Z,71.3
2017-08-01T01:10:05.352Z,71.9
2017-08-01T01:11:06.732Z,73.1
2017-08-01T01:12:08.110Z,72.6
2017-08-01T01:13:09.484Z,72.5
2017-08-01T01:14:10.939Z,72.9
2017-08-01T01:15:12.320Z,72.1
2017-08-01T01:16:13.710Z,72.8
2017-08-01T01:17:15.083Z,71.8
2017-08-01T01:18:16.553Z,71.6
2017-08-01T01:19:17.973Z,72.7
2017-08-01T01:20:19.350Z,72.8
2017-08-01T01:21:20.858Z,73.2
2017-08-01T01:22:22.219Z,73.4
2017-08-01T01:23:23.599Z,72.5
2017-08-01T01:24:24.981Z,73.6
2017-08-01T01:25:26.372Z,74.1
2017-08-01T01:26:27.753Z,72.8
2017-08-01T01:27:29.152Z,73.0
2017-08-01T01:28:30.533Z,72.9
2017-08-01T01:29:31.985Z,72.6
2017-08-01T01:30:33.375Z,72.4
2017-08-01T01:31:34.845Z,72.7
2017-08-01T01:33:17.197Z,72.8
2017-08-01T01:34:18.575Z,73.4
2017-08-01T01:35:19.952Z,73.9
2017-08-01T01:36:21.359Z,74.1
2017-08-01T01:37:22.849Z,73.1
2017-08-01T01:38:24.188Z,72.9
2017-08-01T01:39:25.571Z,72.9
2017-08-01T01:40:26.955Z,72.8
2017-08-01T01:41:28.326Z,73.1
2017-08-01T01:42:29.709Z,73.1
2017-08-01T01:44:12.081Z,72.9
2017-08-01T01:45:13.460Z,72.4
2017-08-01T01:46:14.833Z,73.4
2017-08-01T01:47:16.441Z,73.4
2017-08-01T01:48:17.831Z,73.1
2017-08-01T01:49:19.208Z,73.1
2017-08-01T01:50:20.675Z,73.1
2017-08-01T01:51:22.059Z,73.2
2017-08-01T01:52:23.441Z,73.1
2017-08-01T01:53:24.934Z,72.8
2017-08-01T01:54:26.437Z,72.6
2017-08-01T01:55:28.028Z,73.1
2017-08-01T01:57:11.015Z,72.5
2017-08-01T01:58:12.472Z,72.9
2017-08-01T01:59:13.846Z,73.1
2017-08-01T02:00:15.537Z,73.8
2017-08-01T02:01:16.881Z,73.3
2017-08-01T02:02:18.464Z,73.2
2017-08-01T02:03:20.235Z,72.9
2017-08-01T02:04:22.012Z,72.7
2017-08-01T02:05:23.402Z,73.3
2017-08-01T02:06:24.793Z,72.8
2017-08-01T02:07:26.564Z,72.5
2017-08-01T02:08:28.377Z,73.1
2017-08-01T02:09:29.854Z,73.3
2017-08-01T02:10:31.259Z,72.6
2017-08-01T02:11:32.665Z,72.8
2017-08-01T02:12:34.135Z,72.8
2017-08-01T02:13:35.517Z,73.0
2017-08-01T02:14:37.280Z,72.6
2017-08-01T02:15:39.065Z,72.8
2017-08-01T02:16:40.513Z,72.7
2017-08-01T02:17:41.906Z,71.6
2017-08-01T02:18:43.297Z,72.8
2017-08-01T02:19:44.703Z,72.9
2017-08-01T02:20:46.088Z,73.0
2017-08-01T02:21:47.968Z,72.6
2017-08-01T02:22:49.719Z,73.3
2017-08-01T02:23:51.570Z,72.8
2017-08-01T02:24:52.974Z,72.5
2017-08-01T02:25:54.501Z,71.6
2017-08-01T02:26:55.912Z,72.4
2017-08-01T02:27:57.291Z,72.7
2017-08-01T02:28:58.685Z,72.4
2017-08-01T02:30:00.267Z,72.8
2017-08-01T02:31:01.957Z,72.7
2017-08-01T02:32:03.368Z,72.8
2017-08-01T02:33:04.779Z,73.1
2017-08-01T02:34:47.170Z,72.8
2017-08-01T02:35:48.883Z,73.3
2017-08-01T02:36:50.212Z,73.3
2017-08-01T02:37:51.819Z,73.3
2017-08-01T02:38:53.606Z,73.3
2017-08-01T02:39:55.484Z,73.4
2017-08-01T02:40:57.173Z,73.8
2017-08-01T02:41:58.591Z,73.7
2017-08-01T02:43:00.446Z,73.6
2017-08-01T02:44:02.299Z,74.0
2017-08-01T02:45:03.640Z,73.0
2017-08-01T02:46:05.538Z,73.1
2017-08-01T02:47:07.347Z,73.6
2017-08-01T02:48:49.802Z,73.3
2017-08-01T02:49:51.184Z,73.7
2017-08-01T02:50:52.933Z,73.9
2017-08-01T02:51:54.272Z,74.1
2017-08-01T02:52:55.655Z,73.6
2017-08-01T02:53:57.034Z,73.8
2017-08-01T02:54:58.422Z,73.9
2017-08-01T02:56:00.148Z,73.7
2017-08-01T02:57:01.856Z,74.2
2017-08-01T02:58:03.737Z,74.2
2017-08-01T02:59:05.598Z,74.1
2017-08-01T03:00:06.988Z,73.3
2017-08-01T03:01:08.844Z,73.5
2017-08-01T03:02:10.219Z,73.8
2017-08-01T03:03:11.598Z,73.9
2017-08-01T03:04:12.975Z,73.5
2017-08-01T03:05:14.353Z,73.3
2017-08-01T03:06:15.982Z,73.6
2017-08-01T03:07:17.364Z,73.6
2017-08-01T03:08:18.768Z,73.0
2017-08-01T03:09:20.187Z,73.4
2017-08-01T03:10:21.580Z,73.6
2017-08-01T03:11:23.436Z,73.2
2017-08-01T03:12:25.264Z,73.5
2017-08-01T03:13:27.044Z,72.9
2017-08-01T03:14:28.430Z,73.3
2017-08-01T03:15:30.059Z,73.8
2017-08-01T03:16:31.859Z,73.3
2017-08-01T03:17:33.603Z,73.3
2017-08-01T03:18:35.509Z,73.5
2017-08-01T03:19:36.904Z,73.3
2017-08-01T03:20:38.704Z,73.8
2017-08-01T03:22:21.046Z,73.8
2017-08-01T03:23:22.437Z,74.2
2017-08-01T03:24:23.810Z,73.5
2017-08-01T03:25:25.188Z,73.1
2017-08-01T03:26:26.567Z,73.1
2017-08-01T03:27:27.956Z,73.2
2017-08-01T03:28:29.372Z,74.0
2017-08-01T03:30:11.736Z,73.7
2017-08-01T03:31:13.119Z,74.0
2017-08-01T03:32:14.714Z,74.3
2017-08-01T03:33:16.096Z,74.0
2017-08-01T03:34:17.472Z,73.9
2017-08-01T03:35:18.853Z,73.5
2017-08-01T03:36:20.235Z,73.0
2017-08-01T03:37:21.614Z,73.0
2017-08-01T03:38:23.356Z,73.0
2017-08-01T03:39:25.041Z,74.1
2017-08-01T03:40:26.477Z,73.7
2017-08-01T03:41:27.871Z,73.8
2017-08-01T03:42:29.274Z,73.6
2017-08-01T03:43:30.995Z,74.3
2017-08-01T03:44:32.549Z,74.2
2017-08-01T03:45:33.949Z,74.7
2017-08-01T03:46:35.720Z,74.4
2017-08-01T03:47:37.451Z,74.3
2017-08-01T03:48:39.381Z,74.3
2017-08-01T03:49:40.787Z,74.8
2017-08-01T03:50:42.573Z,74.4
2017-08-01T03:51:44.037Z,74.3
2017-08-01T03:52:45.436Z,74.3
2017-08-01T03:53:47.007Z,74.2
2017-08-01T03:54:48.419Z,74.3
2017-08-01T03:55:50.281Z,74.0
2017-08-01T03:56:52.475Z,73.8
2017-08-01T03:57:53.879Z,74.8
2017-08-01T03:58:55.740Z,74.7
2017-08-01T03:59:57.110Z,74.1
2017-08-01T04:00:58.527Z,74.2
2017-08-01T04:01:59.946Z,74.2
2017-08-01T04:03:01.803Z,74.0
2017-08-01T04:04:03.210Z,73.6
2017-08-01T04:05:04.666Z,74.2
2017-08-01T04:06:06.064Z,74.0
2017-08-01T04:07:07.705Z,73.8
2017-08-01T04:08:09.624Z,73.9
2017-08-01T04:09:11.008Z,73.8
2017-08-01T04:10:12.430Z,74.1
2017-08-01T04:11:13.825Z,73.6
2017-08-01T04:12:15.214Z,73.9
2017-08-01T04:13:16.614Z,73.7
2017-08-01T04:14:18.040Z,74.2
2017-08-01T04:15:19.577Z,73.7
2017-08-01T04:16:21.599Z,73.7
2017-08-01T04:18:04.063Z,74.0
2017-08-01T04:19:05.411Z,73.9
2017-08-01T04:20:06.797Z,73.3
2017-08-01T04:21:08.183Z,73.3
2017-08-01T04:22:09.582Z,73.0
2017-08-01T04:23:10.977Z,73.1
2017-08-01T04:24:12.874Z,73.5
2017-08-01T04:25:14.332Z,73.4
2017-08-01T04:26:16.018Z,74.0
2017-08-01T04:27:17.830Z,73.1
2017-08-01T04:28:19.763Z,73.2
2017-08-01T04:29:21.459Z,73.0
2017-08-01T04:30:23.277Z,73.3
2017-08-01T04:31:24.687Z,73.0
2017-08-01T04:32:26.095Z,72.9
2017-08-01T04:33:27.947Z,74.2
2017-08-01T04:34:29.506Z,74.1
2017-08-01T04:35:30.897Z,73.7
2017-08-01T04:36:32.293Z,73.5
2017-08-01T04:37:33.841Z,74.0
2017-08-01T04:38:35.597Z,73.7
2017-08-01T04:39:37.007Z,74.0
2017-08-01T04:40:38.416Z,74.2
2017-08-01T04:41:39.856Z,74.1
2017-08-01T04:42:41.288Z,74.1
2017-08-01T04:43:43.072Z,74.2
2017-08-01T04:44:44.579Z,73.9
2017-08-01T04:45:46.015Z,74.3
2017-08-01T04:46:47.412Z,73.6
2017-08-01T04:47:49.294Z,74.3
2017-08-01T04:48:50.669Z,73.6
2017-08-01T04:49:52.064Z,73.5
2017-08-01T04:50:53.476Z,74.2
2017-08-01T04:51:54.916Z,73.9
2017-08-01T04:52:56.323Z,72.9
2017-08-01T04:53:57.734Z,73.1
2017-08-01T04:55:40.127Z,72.8
2017-08-01T04:56:41.639Z,72.9
2017-08-01T04:57:43.821Z,71.9
2017-08-01T04:58:45.909Z,71.6
2017-08-01T04:59:47.765Z,71.2
2017-08-01T05:00:49.733Z,71.0
2017-08-01T05:01:51.311Z,70.2
2017-08-01T05:02:52.682Z,69.0
2017-08-01T05:03:54.134Z,69.1
2017-08-01T05:04:55.523Z,68.4
2017-08-01T05:05:57.491Z,68.5
2017-08-01T05:07:39.884Z,67.0
2017-08-01T05:08:41.281Z,66.1
2017-08-01T05:09:43.193Z,64.6
2017-08-01T05:10:44.581Z,64.4
2017-08-01T05:11:45.968Z,65.1
2017-08-01T05:12:47.356Z,63.9
2017-08-01T05:13:48.742Z,63.0
2017-08-01T05:14:50.131Z,63.1
2017-08-01T05:16:34.012Z,64.1
2017-08-01T05:17:35.456Z,63.4
2017-08-01T05:18:36.838Z,63.1
2017-08-01T05:19:38.226Z,62.7
2017-08-01T05:20:40.218Z,62.3
2017-08-01T05:21:41.604Z,61.7
2017-08-01T05:22:43.000Z,61.2
2017-08-01T05:23:44.420Z,61.7
2017-08-01T05:24:45.817Z,62.0
2017-08-01T05:25:47.258Z,62.1
2017-08-01T05:26:48.678Z,61.8
2017-08-01T05:27:50.390Z,62.2
2017-08-01T05:28:51.783Z,62.0
2017-08-01T05:29:53.186Z,61.2
2017-08-01T05:30:54.605Z,60.7
2017-08-01T05:32:36.989Z,59.5
2017-08-01T05:33:38.374Z,59.3
2017-08-01T05:34:39.788Z,59.4
2017-08-01T05:35:41.175Z,59.4
2017-08-01T05:36:42.566Z,59.4
2017-08-01T05:37:43.958Z,58.9
2017-08-01T05:38:45.476Z,59.4
2017-08-01T05:39:47.167Z,58.9
2017-08-01T05:40:48.955Z,58.6
2017-08-01T05:42:30.322Z,59.5
2017-08-01T05:43:31.709Z,59.7
2017-08-01T05:44:33.100Z,59.8
2017-08-01T05:45:34.562Z,60.4
2017-08-01T05:46:35.934Z,60.5
2017-08-01T05:47:37.326Z,61.3
2017-08-01T05:48:38.810Z,60.7
2017-08-01T05:49:40.257Z,61.1
2017-08-01T05:50:41.643Z,61.2
2017-08-01T05:51:43.034Z,61.7
2017-08-01T05:52:44.476Z,61.5
2017-08-01T05:53:45.859Z,62.0
2017-08-01T05:54:47.265Z,62.0
2017-08-01T05:55:48.657Z,62.7
2017-08-01T05:56:50.064Z,61.7
2017-08-01T05:57:51.750Z,62.9
2017-08-01T05:58:53.151Z,62.8
2017-08-01T05:59:54.599Z,62.3
2017-08-01T06:00:56.021Z,62.6
2017-08-01T06:01:57.485Z,63.3
2017-08-01T06:02:58.985Z,63.4
2017-08-01T06:04:00.433Z,63.2
2017-08-01T06:05:01.846Z,63.0
2017-08-01T06:06:03.245Z,63.3
2017-08-01T06:07:05.144Z,63.5
2017-08-01T06:08:06.583Z,63.2
2017-08-01T06:09:08.331Z,63.5
2017-08-01T06:10:09.790Z,62.7
2017-08-01T06:11:11.189Z,62.7
2017-08-01T06:12:12.584Z,61.9
2017-08-01T06:13:14.242Z,61.4
2017-08-01T06:14:15.644Z,61.7
2017-08-01T06:15:17.046Z,60.2
2017-08-01T06:16:18.454Z,61.0
2017-08-01T06:17:19.900Z,60.9
2017-08-01T06:18:21.302Z,61.1
2017-08-01T06:19:22.697Z,59.6
2017-08-01T06:20:24.125Z,59.1
2017-08-01T06:21:25.547Z,58.6
2017-08-01T06:22:26.942Z,58.4
2017-08-01T06:23:28.426Z,58.7
2017-08-01T06:24:29.811Z,57.3
2017-08-01T06:25:31.217Z,57.3
2017-08-01T06:26:32.611Z,56.8
2017-08-01T06:28:15.054Z,56.8
2017-08-01T06:29:16.448Z,57.4
2017-08-01T06:30:17.836Z,56.6
2017-08-01T06:31:19.235Z,56.4
2017-08-01T06:32:20.637Z,56.0
2017-08-01T06:33:22.024Z,55.0
2017-08-01T06:34:23.425Z,55.6
2017-08-01T06:35:24.822Z,55.2
2017-08-01T06:36:26.205Z,55.2
2017-08-01T06:37:27.611Z,55.0
2017-08-01T06:38:29.020Z,54.1
2017-08-01T06:39:30.415Z,54.6
2017-08-01T06:40:31.807Z,54.8
2017-08-01T06:41:33.202Z,55.7
2017-08-01T06:42:34.600Z,54.5
2017-08-01T06:43:35.990Z,54.6
2017-08-01T06:44:37.465Z,55.7
2017-08-01T06:45:38.874Z,55.6
2017-08-01T06:46:40.283Z,55.8
2017-08-01T06:47:41.676Z,56.7
2017-08-01T06:48:43.072Z,56.6
2017-08-01T06:50:25.484Z,56.4
2017-08-01T06:51:26.880Z,56.4
2017-08-01T06:52:28.268Z,57.4
2017-08-01T06:53:29.670Z,58.1
2017-08-01T06:54:31.060Z,59.0
2017-08-01T06:55:32.452Z,59.0
2017-08-01T06:56:33.847Z,59.5
2017-08-01T06:57:35.242Z,60.1
2017-08-01T06:58:36.632Z,59.9
2017-08-01T06:59:38.028Z,60.7
2017-08-01T07:00:39.472Z,61.3
2017-08-01T07:01:40.897Z,61.1
2017-08-01T07:02:42.286Z,61.7
2017-08-01T07:03:43.830Z,61.2
2017-08-01T07:04:45.282Z,62.3
2017-08-01T07:05:46.704Z,62.3
2017-08-01T07:06:48.179Z,62.2
2017-08-01T07:07:49.759Z,62.8
2017-08-01T07:08:51.172Z,62.2
2017-08-01T07:09:52.574Z,62.8
2017-08-01T07:10:53.970Z,62.6
2017-08-01T07:11:55.387Z,62.0
2017-08-01T07:12:56.805Z,62.8
2017-08-01T07:13:58.352Z,61.9
2017-08-01T07:15:00.004Z,61.8
2017-08-01T07:16:01.428Z,62.8
2017-08-01T07:17:43.822Z,61.2
2017-08-01T07:18:45.223Z,61.4
2017-08-01T07:19:46.610Z,61.4
2017-08-01T07:20:48.003Z,61.5
2017-08-01T07:21:49.446Z,61.2
2017-08-01T07:22:50.850Z,61.6
2017-08-01T07:23:52.230Z,61.6
2017-08-01T07:24:53.644Z,62.5
2017-08-01T07:25:55.056Z,62.6
2017-08-01T07:26:56.436Z,62.6
2017-08-01T07:27:57.874Z,62.8
2017-08-01T07:28:59.246Z,63.2
2017-08-01T07:30:00.637Z,62.3
2017-08-01T07:31:02.030Z,62.4
2017-08-01T07:32:03.427Z,62.7
2017-08-01T07:33:04.934Z,62.8
2017-08-01T07:34:06.319Z,61.7
2017-08-01T07:35:48.712Z,62.0
2017-08-01T07:36:50.102Z,61.9
2017-08-01T07:37:51.493Z,62.9
2017-08-01T07:38:52.882Z,61.4
2017-08-01T07:39:54.404Z,61.6
2017-08-01T07:40:55.799Z,61.1
2017-08-01T07:41:57.191Z,60.4
2017-08-01T07:42:58.585Z,58.2
2017-08-01T07:44:00.002Z,58.2
2017-08-01T07:45:01.400Z,57.7
2017-08-01T07:46:02.792Z,58.0
2017-08-01T07:47:04.181Z,58.5
2017-08-01T07:48:05.610Z,58.3
2017-08-01T07:49:07.002Z,57.9
2017-08-01T07:50:08.399Z,58.0
2017-08-01T07:51:09.796Z,58.9
2017-08-01T07:52:11.181Z,59.7
2017-08-01T07:53:12.832Z,58.9
2017-08-01T07:54:14.289Z,58.5
2017-08-01T07:55:15.652Z,59.4
2017-08-01T07:56:17.045Z,58.9
2017-08-01T07:57:18.438Z,59.6
2017-08-01T07:58:19.847Z,59.8
2017-08-01T07:59:21.232Z,60.0
2017-08-01T08:00:22.637Z,58.3
2017-08-01T08:01:24.039Z,58.5
2017-08-01T08:02:25.448Z,57.6
2017-08-01T08:03:26.869Z,58.1
2017-08-01T08:04:28.269Z,57.3
2017-08-01T08:05:29.776Z,57.2
2017-08-01T08:09:15.153Z,56.8
2017-08-01T08:10:16.539Z,57.0
2017-08-01T08:11:17.934Z,55.9
2017-08-01T08:12:19.350Z,55.4
2017-08-01T08:13:20.737Z,56.5
2017-08-01T08:14:22.130Z,56.7
2017-08-01T08:15:23.524Z,55.9
2017-08-01T08:16:24.957Z,56.1
2017-08-01T08:17:26.347Z,55.1
2017-08-01T08:18:27.737Z,54.7
2017-08-01T08:19:29.145Z,54.2
2017-08-01T08:20:30.542Z,54.0
2017-08-01T08:22:12.966Z,54.2
2017-08-01T08:23:14.370Z,53.7
2017-08-01T08:24:15.759Z,54.0
2017-08-01T08:25:17.153Z,53.1
2017-08-01T08:26:18.542Z,54.1
2017-08-01T08:27:19.951Z,53.7
2017-08-01T08:28:21.362Z,53.1
2017-08-01T08:29:22.746Z,52.9
2017-08-01T08:30:24.180Z,52.6
2017-08-01T08:31:25.577Z,52.3
2017-08-01T08:32:26.971Z,52.9
2017-08-01T08:33:28.399Z,51.7
2017-08-01T08:34:29.831Z,52.4
2017-08-01T08:35:31.285Z,52.0
2017-08-01T08:36:32.772Z,51.5
2017-08-01T08:37:34.202Z,52.4
2017-08-01T08:38:35.619Z,52.1
2017-08-01T08:39:36.996Z,51.9
2017-08-01T08:40:38.387Z,52.8
2017-08-01T08:41:39.789Z,53.3
2017-08-01T08:42:41.549Z,52.7
2017-08-01T08:43:42.933Z,52.9
2017-08-01T08:44:44.320Z,52.5
2017-08-01T08:45:45.717Z,52.8
2017-08-01T08:46:47.554Z,52.9
2017-08-01T08:47:48.950Z,53.6
2017-08-01T08:48:50.362Z,53.1
2017-08-01T08:49:51.756Z,53.4
2017-08-01T08:50:53.276Z,54.4
2017-08-01T08:51:54.692Z,54.5
2017-08-01T08:52:56.082Z,54.1
2017-08-01T08:53:57.830Z,54.5
2017-08-01T08:54:59.255Z,54.9
2017-08-01T08:56:00.660Z,55.2
2017-08-01T08:57:43.057Z,56.1
2017-08-01T08:58:44.450Z,57.3
2017-08-01T08:59:45.843Z,56.9
2017-08-01T09:00:47.233Z,57.8
2017-08-01T09:01:48.623Z,58.9
2017-08-01T09:02:50.024Z,59.8
2017-08-01T09:03:51.417Z,60.9
2017-08-01T09:04:52.809Z,60.8
2017-08-01T09:05:54.294Z,61.7
2017-08-01T09:06:55.715Z,62.5
2017-08-01T09:07:57.091Z,63.1
2017-08-01T09:09:39.502Z,64.3
2017-08-01T09:10:40.886Z,64.9
2017-08-01T09:11:42.270Z,64.5
2017-08-01T09:12:43.666Z,65.2
2017-08-01T09:13:45.077Z,65.6
2017-08-01T09:14:46.470Z,66.8
2017-08-01T09:15:47.893Z,66.5
2017-08-01T09:16:49.281Z,66.9
2017-08-01T09:17:50.674Z,67.7
2017-08-01T09:18:52.061Z,67.9
2017-08-01T09:19:53.455Z,69.3
2017-08-01T09:20:54.925Z,69.2
2017-08-01T09:21:56.321Z,70.0
2017-08-01T09:22:57.709Z,71.0
2017-08-01T09:23:59.102Z,71.2
2017-08-01T09:25:00.533Z,72.0
2017-08-01T09:26:42.895Z,72.5
2017-08-01T09:27:44.275Z,71.7
2017-08-01T09:28:45.665Z,73.0
2017-08-01T09:29:47.052Z,72.4
2017-08-01T09:30:48.455Z,71.0
2017-08-01T09:31:49.893Z,73.0
2017-08-01T09:32:51.279Z,74.1
2017-08-01T09:33:52.671Z,73.9
2017-08-01T09:34:54.112Z,74.2
2017-08-01T09:35:55.588Z,73.1
2017-08-01T09:36:57.084Z,72.2
2017-08-01T09:37:58.686Z,71.5
2017-08-01T09:39:00.252Z,72.9
2017-08-01T09:40:01.729Z,73.0
2017-08-01T09:41:03.714Z,74.2
2017-08-01T09:42:05.705Z,74.1
2017-08-01T09:43:07.157Z,74.3
2017-08-01T09:44:08.809Z,74.5
2017-08-01T09:45:10.526Z,75.3
2017-08-01T09:46:53.409Z,74.8
2017-08-01T09:47:56.210Z,74.6
2017-08-01T09:48:57.635Z,74.1
2017-08-01T09:49:59.133Z,73.6
2017-08-01T09:51:00.602Z,73.9
2017-08-01T09:52:02.049Z,73.5
2017-08-01T09:53:03.469Z,72.8
2017-08-01T09:54:04.877Z,73.6
2017-08-01T09:55:06.537Z,74.5
2017-08-01T09:56:08.007Z,73.6
2017-08-01T09:57:09.509Z,72.3
2017-08-01T09:58:11.009Z,73.2
2017-08-01T09:59:12.394Z,72.9
2017-08-01T10:00:13.862Z,72.2
2017-08-01T10:01:15.288Z,72.2
2017-08-01T10:02:16.754Z,71.1
2017-08-01T10:03:18.609Z,70.4
2017-08-01T10:04:20.470Z,69.5
2017-08-01T10:05:21.891Z,68.2
2017-08-01T10:06:23.762Z,67.4
2017-08-01T10:07:25.275Z,67.2
2017-08-01T10:08:26.724Z,65.4
2017-08-01T10:09:28.656Z,65.3
2017-08-01T10:10:30.480Z,64.7
2017-08-01T10:11:32.312Z,65.7
2017-08-01T10:12:34.225Z,67.7
2017-08-01T10:13:35.720Z,68.0
2017-08-01T10:14:37.204Z,66.6
2017-08-01T10:15:38.734Z,66.9
2017-08-01T10:16:40.206Z,66.6
2017-08-01T10:18:22.664Z,65.6
2017-08-01T10:19:24.020Z,65.7
2017-08-01T10:20:25.409Z,66.4
2017-08-01T10:21:26.814Z,66.1
2017-08-01T10:22:28.282Z,62.1
2017-08-01T10:23:29.742Z,60.9
2017-08-01T10:24:31.143Z,59.7
2017-08-01T10:25:32.572Z,57.2
2017-08-01T10:26:33.961Z,56.9
2017-08-01T10:27:35.355Z,58.2
2017-08-01T10:28:36.768Z,53.5
2017-08-01T10:29:38.167Z,54.0
2017-08-01T10:30:39.561Z,52.3
2017-08-01T10:31:40.959Z,53.0
2017-08-01T10:32:42.356Z,52.6
2017-08-01T10:34:24.775Z,50.9
2017-08-01T10:35:26.169Z,49.9
2017-08-01T10:36:27.568Z,48.8
2017-08-01T10:37:28.975Z,47.8
2017-08-01T10:38:30.359Z,46.8
2017-08-01T10:39:31.762Z,46.7
2017-08-01T10:40:33.190Z,46.5
2017-08-01T10:41:34.590Z,43.7
2017-08-01T10:42:35.988Z,44.0
2017-08-01T10:43:37.388Z,44.5
2017-08-01T10:44:38.793Z,44.1
2017-08-01T10:45:40.194Z,43.1
2017-08-01T10:46:41.597Z,44.1
2017-08-01T10:47:43.013Z,43.2
2017-08-01T10:48:44.410Z,44.1
2017-08-01T10:49:45.810Z,44.7
2017-08-01T10:50:47.208Z,44.0
2017-08-01T10:52:29.606Z,42.0
2017-08-01T10:53:31.007Z,43.9
2017-08-01T10:54:32.415Z,43.1
2017-08-01T10:55:33.817Z,42.3
2017-08-01T10:56:35.217Z,42.8
2017-08-01T10:57:36.627Z,42.1
2017-08-01T10:58:38.040Z,41.8
2017-08-01T10:59:39.447Z,42.2
2017-08-01T11:00:40.848Z,43.1
2017-08-01T11:01:42.250Z,41.9
2017-08-01T11:02:43.657Z,41.5
2017-08-01T11:03:45.065Z,42.5
2017-08-01T11:04:46.465Z,43.6
2017-08-01T11:05:47.917Z,43.2
2017-08-01T11:06:49.304Z,44.2
2017-08-01T11:07:50.701Z,43.4
2017-08-01T11:08:52.090Z,45.1
2017-08-01T11:09:53.517Z,45.8
2017-08-01T11:10:54.934Z,46.4
2017-08-01T11:11:56.335Z,46.7
2017-08-01T11:13:38.745Z,46.6
2017-08-01T11:14:40.143Z,45.2
2017-08-01T11:15:41.540Z,46.0
2017-08-01T11:16:42.957Z,44.4
2017-08-01T11:17:44.361Z,44.4
2017-08-01T11:18:45.762Z,45.7
2017-08-01T11:19:47.165Z,45.6
2017-08-01T11:20:48.569Z,45.2
2017-08-01T11:21:49.971Z,45.6
2017-08-01T11:22:51.368Z,44.8
2017-08-01T11:23:52.806Z,44.7
2017-08-01T11:24:54.195Z,44.7
2017-08-01T11:25:55.596Z,44.9
2017-08-01T11:26:56.994Z,44.9
2017-08-01T11:27:58.443Z,45.3
2017-08-01T11:28:59.843Z,45.5
2017-08-01T11:30:01.238Z,45.2
2017-08-01T11:31:02.645Z,45.3
2017-08-01T11:32:04.041Z,47.1
2017-08-01T11:33:05.440Z,46.9
2017-08-01T11:34:06.838Z,46.4
2017-08-01T11:35:08.249Z,46.8
2017-08-01T11:36:09.648Z,46.7
2017-08-01T11:37:11.061Z,47.3
2017-08-01T11:38:53.459Z,47.5
2017-08-01T11:39:54.861Z,47.2
2017-08-01T11:40:56.257Z,46.4
2017-08-01T11:41:57.650Z,49.7
2017-08-01T11:42:59.053Z,48.6
2017-08-01T11:44:00.545Z,48.2
2017-08-01T11:45:01.930Z,46.8
2017-08-01T11:46:03.332Z,46.7
2017-08-01T11:47:04.735Z,47.1
2017-08-01T11:48:06.135Z,47.4
2017-08-01T11:49:07.539Z,46.8
2017-08-01T11:50:08.948Z,44.9
2017-08-01T11:51:10.353Z,44.7
2017-08-01T11:52:11.761Z,45.5
2017-08-01T11:53:13.178Z,46.3
2017-08-01T11:54:14.576Z,46.1
2017-08-01T11:55:15.975Z,46.2
2017-08-01T11:56:17.371Z,46.9
2017-08-01T11:57:18.765Z,47.5
2017-08-01T11:58:20.162Z,48.5
2017-08-01T11:59:21.572Z,48.2
2017-08-01T12:00:23.011Z,48.8
2017-08-01T12:01:24.406Z,49.5
2017-08-01T12:02:25.803Z,49.7
2017-08-01T12:03:27.227Z,49.5
2017-08-01T12:04:28.615Z,50.9
2017-08-01T12:05:30.013Z,50.7
2017-08-01T12:06:31.487Z,50.8
2017-08-01T12:07:32.911Z,51.6
2017-08-01T12:08:34.307Z,51.8
2017-08-01T12:09:35.701Z,52.3
2017-08-01T12:10:37.105Z,52.3
2017-08-01T12:11:38.544Z,50.9
2017-08-01T12:12:39.938Z,51.6
2017-08-01T12:13:41.426Z,52.1
2017-08-01T12:14:42.926Z,52.7
2017-08-01T12:15:44.328Z,54.3
2017-08-01T12:16:45.719Z,54.6
2017-08-01T12:17:47.129Z,55.2
2017-08-01T12:18:48.554Z,55.4
2017-08-01T12:19:49.966Z,53.3
2017-08-01T12:20:51.510Z,51.8
2017-08-01T12:21:52.994Z,52.6
2017-08-01T12:22:54.401Z,53.6
2017-08-01T12:23:55.800Z,54.0
2017-08-01T12:24:57.195Z,53.1
2017-08-01T12:25:58.657Z,52.9
2017-08-01T12:27:00.089Z,54.8
2017-08-01T12:28:01.486Z,53.8
2017-08-01T12:29:02.970Z,53.8
2017-08-01T12:30:04.435Z,54.4
2017-08-01T12:31:05.903Z,54.0
2017-08-01T12:32:07.328Z,54.1
2017-08-01T12:33:08.726Z,53.3
2017-08-01T12:34:10.117Z,55.0
2017-08-01T12:35:11.535Z,55.6
2017-08-01T12:36:12.983Z,56.4
2017-08-01T12:37:14.406Z,57.1
2017-08-01T12:38:15.840Z,57.4
2017-08-01T12:39:17.239Z,56.8
2017-08-01T12:40:18.669Z,57.4
2017-08-01T12:41:20.160Z,56.0
2017-08-01T12:42:21.562Z,55.7
2017-08-01T12:43:22.984Z,55.4
2017-08-01T12:44:24.501Z,55.4
2017-08-01T12:45:25.891Z,55.2
2017-08-01T12:46:27.407Z,54.0
2017-08-01T12:47:28.805Z,55.5
2017-08-01T12:48:30.207Z,55.2
2017-08-01T12:49:31.736Z,54.2
2017-08-01T12:51:14.122Z,54.5
2017-08-01T12:52:15.511Z,54.3
2017-08-01T12:53:17.325Z,53.9
2017-08-01T12:54:18.733Z,53.3
2017-08-01T12:55:20.124Z,55.0
2017-08-01T12:56:21.516Z,54.0
2017-08-01T12:57:22.924Z,53.8
2017-08-01T12:58:24.324Z,53.6
2017-08-01T12:59:25.713Z,53.6
2017-08-01T13:00:27.110Z,54.5
2017-08-01T13:01:28.564Z,54.2
2017-08-01T13:02:29.955Z,52.4
2017-08-01T13:03:31.343Z,52.5
2017-08-01T13:04:32.731Z,54.1
2017-08-01T13:05:34.159Z,54.2
2017-08-01T13:06:35.573Z,54.3
2017-08-01T13:07:36.975Z,54.2
2017-08-01T13:08:38.370Z,53.7
2017-08-01T13:09:39.811Z,54.6
2017-08-01T13:10:41.245Z,54.2
2017-08-01T13:11:42.674Z,54.3
2017-08-01T13:12:44.070Z,54.6
2017-08-01T13:13:45.586Z,54.2
2017-08-01T13:14:46.959Z,54.6
2017-08-01T13:15:48.406Z,53.9
2017-08-01T13:16:49.965Z,54.3
2017-08-01T13:17:51.370Z,52.0
2017-08-01T13:18:52.776Z,49.4
2017-08-01T13:19:54.248Z,48.9
2017-08-01T13:20:55.642Z,49.4
2017-08-01T13:21:57.044Z,50.5
2017-08-01T13:22:58.504Z,50.1
2017-08-01T13:23:59.943Z,50.4
2017-08-01T13:25:01.372Z,49.6
2017-08-01T13:26:02.753Z,49.8
2017-08-01T13:27:04.198Z,49.6
2017-08-01T13:28:05.600Z,48.6
2017-08-01T13:29:06.991Z,50.6
2017-08-01T13:30:08.386Z,49.7
2017-08-01T13:31:09.779Z,48.7
2017-08-01T13:32:11.173Z,48.7
2017-08-01T13:33:12.567Z,47.5
2017-08-01T13:34:54.960Z,47.5
2017-08-01T13:35:56.352Z,47.4
2017-08-01T13:36:57.747Z,47.4
2017-08-01T13:37:59.294Z,48.0
2017-08-01T13:39:00.685Z,47.3
2017-08-01T13:40:02.079Z,46.8
2017-08-01T13:41:03.497Z,47.9
2017-08-01T13:42:04.924Z,48.7
2017-08-01T13:43:06.324Z,46.9
2017-08-01T13:44:07.716Z,46.7
2017-08-01T13:45:09.135Z,47.6
2017-08-01T13:46:10.519Z,48.3
2017-08-01T13:47:11.929Z,48.6
2017-08-01T13:48:13.367Z,48.5
2017-08-01T13:49:14.781Z,48.0
2017-08-01T13:50:16.189Z,48.3
2017-08-01T13:51:17.587Z,48.7
2017-08-01T13:52:19.026Z,49.3
2017-08-01T13:53:20.429Z,51.3
2017-08-01T13:54:21.830Z,52.8
2017-08-01T13:56:04.272Z,54.0
2017-08-01T13:57:05.662Z,54.3
2017-08-01T13:58:07.050Z,54.5
2017-08-01T13:59:08.439Z,54.4
2017-08-01T14:00:09.843Z,54.0
2017-08-01T14:01:11.239Z,53.9
2017-08-01T14:02:12.631Z,53.6
2017-08-01T14:03:14.027Z,53.3
2017-08-01T14:04:15.425Z,53.8
2017-08-01T14:05:16.825Z,54.0